Time;durP1;ratioP1;P1;durP2;ratioP2;P2;SDS_P1;SDS_P2;PMS_P1;PMS_P2;Temp;Humidity;BMP_temperature;BMP_pressure;BME280_temperature;BME280_humidity;BME280_pressure;Samples;Min_cycle;Max_cycle;Signal;HPM_P1;HPM_P2
2024/03/10 00:00:20;;;;;;;0.80;0.80;;;-1.00;99.90;;;;;;5115242;28;20662;-74
2024/03/10 00:02:46;;;;;;;0.90;0.90;;;-1.00;99.90;;;;;;5114939;28;20620;-75
2024/03/10 00:05:24;;;;;;;0.77;0.77;;;-1.00;99.90;;;;;;5115114;28;20187;-75
2024/03/10 00:07:49;;;;;;;0.70;0.70;;;-1.00;99.90;;;;;;5109064;28;20207;-75
2024/03/10 00:10:25;;;;;;;;;;;;;;;;;;;;;
2024/03/10 00:12:54;;;;;;;0.80;0.80;;;-1.00;99.90;;;;;;5114922;28;20190;-75
2024/03/10 00:15:22;;;;;;;0.95;0.95;;;-1.00;99.90;;;;;;5114864;28;20195;-75
2024/03/10 00:17:48;;;;;;;0.70;0.70;;;-1.00;99.90;;;;;;5096529;28;20663;-75
2024/03/10 00:20:20;;;;;;;0.73;0.73;;;-1.10;99.90;;;;;;5114797;28;20217;-75
2024/03/10 00:22:47;;;;;;;0.82;0.82;;;-1.10;99.90;;;;;;5096503;28;20203;-74
2024/03/10 00:25:18;;;;;;;0.77;0.77;;;-1.10;99.90;;;;;;5114754;28;20689;-72
2024/03/10 00:27:46;;;;;;;0.63;0.63;;;-1.10;99.90;;;;;;5114402;28;20252;-73
2024/03/10 00:30:15;;;;;;;0.70;0.70;;;-1.10;99.90;;;;;;5114872;28;20282;-72
2024/03/10 00:32:46;;;;;;;0.68;0.68;;;-1.10;99.90;;;;;;5114262;28;20199;-73
2024/03/10 00:35:12;;;;;;;0.63;0.63;;;-1.10;99.90;;;;;;5114410;28;20195;-72
2024/03/10 00:37:40;;;;;;;0.80;0.80;;;-1.20;99.90;;;;;;5114182;28;20220;-72
2024/03/10 00:40:07;;;;;;;0.75;0.75;;;-1.10;99.90;;;;;;5113539;28;20191;-72
2024/03/10 00:42:33;;;;;;;0.70;0.70;;;-1.20;99.90;;;;;;5114187;28;20199;-72
2024/03/10 00:44:59;;;;;;;0.80;0.80;;;-1.20;99.90;;;;;;5130045;27;20578;-72
2024/03/10 00:47:25;;;;;;;0.70;0.70;;;-1.20;99.90;;;;;;5095678;28;20215;-72
2024/03/10 00:49:50;;;;;;;0.80;0.80;;;-1.20;99.90;;;;;;5114181;28;20200;-72
2024/03/10 00:52:16;;;;;;;0.75;0.75;;;-1.20;99.90;;;;;;5114181;28;20322;-72
2024/03/10 00:54:42;;;;;;;0.80;0.80;;;-1.20;99.90;;;;;;5113953;28;20191;-72
2024/03/10 00:57:08;;;;;;;0.70;0.70;;;-1.20;99.90;;;;;;5114039;28;20188;-73
2024/03/10 00:59:34;;;;;;;0.70;0.70;;;-1.20;99.90;;;;;;5113912;28;20686;-72
2024/03/10 01:02:00;;;;;;;0.75;0.75;;;-1.30;99.90;;;;;;5113757;28;20246;-72
2024/03/10 01:04:25;;;;;;;0.70;0.70;;;-1.30;99.90;;;;;;5108918;28;20207;-74
2024/03/10 01:06:51;;;;;;;0.70;0.70;;;-1.30;99.90;;;;;;5113815;28;20207;-72
2024/03/10 01:09:18;;;;;;;0.70;0.70;;;-1.30;99.90;;;;;;5113792;28;20270;-73
2024/03/10 01:11:47;;;;;;;0.75;0.75;;;-1.20;99.90;;;;;;5095507;28;20227;-74
2024/03/10 01:14:14;;;;;;;0.75;0.75;;;-1.20;99.90;;;;;;5113761;28;20188;-72
2024/03/10 01:16:41;;;;;;;0.70;0.70;;;-1.30;99.90;;;;;;5113501;28;20635;-72
2024/03/10 01:19:09;;;;;;;0.80;0.80;;;-1.30;99.90;;;;;;5095365;28;20207;-72
2024/03/10 01:21:35;;;;;;;0.70;0.70;;;-1.30;99.90;;;;;;5113369;28;20651;-72
2024/03/10 01:24:01;;;;;;;0.90;0.90;;;-1.30;99.90;;;;;;5113539;28;20223;-72
2024/03/10 01:26:27;;;;;;;0.80;0.80;;;-1.30;99.90;;;;;;5113293;28;20565;-72
2024/03/10 01:28:53;;;;;;;0.70;0.70;;;-1.30;99.90;;;;;;5113563;28;20191;-72
2024/03/10 01:31:19;;;;;;;0.73;0.73;;;-1.30;99.90;;;;;;5113343;28;20271;-72
2024/03/10 01:33:44;;;;;;;0.80;0.80;;;-1.30;99.90;;;;;;5113355;28;20199;-73
2024/03/10 01:36:11;;;;;;;0.70;0.70;;;-1.30;99.90;;;;;;5113467;28;20693;-77
2024/03/10 01:38:37;;;;;;;0.70;0.70;;;-1.20;99.90;;;;;;5113173;28;20214;-76
2024/03/10 01:41:03;;;;;;;0.77;0.77;;;-1.20;99.90;;;;;;5113283;28;20194;-77
2024/03/10 01:43:29;;;;;;;0.70;0.70;;;-1.30;99.90;;;;;;5113062;28;20188;-77
2024/03/10 01:46:06;;;;;;;0.77;0.77;;;-1.30;99.90;;;;;;5095138;28;20192;-76
2024/03/10 01:48:37;;;;;;;0.70;0.70;;;-1.30;99.90;;;;;;5113037;28;20583;-76
2024/03/10 01:51:05;;;;;;;0.60;0.60;;;-1.20;99.90;;;;;;5112888;28;20195;-77
2024/03/10 01:53:32;;;;;;;0.65;0.65;;;-1.30;99.90;;;;;;5128895;27;20199;-77
2024/03/10 01:56:03;;;;;;;0.80;0.80;;;-1.20;99.90;;;;;;5129158;27;20196;-76
2024/03/10 01:58:31;;;;;;;0.90;0.90;;;-1.30;99.90;;;;;;5112931;28;20331;-76
2024/03/10 02:00:59;;;;;;;0.90;0.90;;;-1.30;99.90;;;;;;5112448;28;20192;-76
2024/03/10 02:03:26;;;;;;;0.80;0.80;;;-1.30;99.90;;;;;;5112447;28;20188;-76
2024/03/10 02:05:52;;;;;;;0.80;0.80;;;-1.30;99.90;;;;;;5112835;28;20266;-75
2024/03/10 02:08:17;;;;;;;0.80;0.80;;;-1.30;99.90;;;;;;5112861;28;20260;-76
2024/03/10 02:10:48;;;;;;;0.70;0.70;;;-1.30;99.90;;;;;;5112693;28;20188;-77
2024/03/10 02:13:18;;;;;;;0.80;0.80;;;-1.40;99.90;;;;;;5112685;28;20703;-76
2024/03/10 02:15:43;;;;;;;0.80;0.80;;;-1.30;99.90;;;;;;5112953;28;20237;-77
2024/03/10 02:18:12;;;;;;;0.90;0.90;;;-1.40;99.90;;;;;;5112767;28;20199;-76
2024/03/10 02:20:38;;;;;;;0.90;0.90;;;-1.30;99.90;;;;;;5112441;28;20187;-77
2024/03/10 02:23:05;;;;;;;0.80;0.80;;;-1.40;99.90;;;;;;5112973;28;20584;-77
2024/03/10 02:25:38;;;;;;;0.73;0.73;;;-1.30;99.90;;;;;;5094314;28;20206;-76
2024/03/10 02:28:20;;;;;;;0.70;0.70;;;-1.30;99.90;;;;;;5112597;28;20251;-77
2024/03/10 02:30:57;;;;;;;0.80;0.80;;;-1.40;99.90;;;;;;5112524;28;20600;-77
2024/03/10 02:47:14;;;;;;;0.80;0.80;;;-1.40;99.90;;;;;;5112618;28;20215;-70
2024/03/10 02:49:40;;;;;;;0.70;0.70;;;-1.30;99.90;;;;;;5112546;28;20647;-70
2024/03/10 02:52:06;;;;;;;0.70;0.70;;;-1.40;99.90;;;;;;5112608;28;20734;-70
2024/03/10 02:54:32;;;;;;;0.85;0.85;;;-1.40;99.90;;;;;;5112438;28;20620;-70
2024/03/10 02:56:58;;;;;;;0.80;0.80;;;-1.40;99.90;;;;;;5112128;28;20724;-70
2024/03/10 02:59:24;;;;;;;0.70;0.70;;;-1.40;99.90;;;;;;5112396;28;20191;-70
2024/03/10 03:01:51;;;;;;;0.70;0.70;;;-1.40;99.90;;;;;;5112873;28;20800;-70
2024/03/10 03:04:17;;;;;;;0.60;0.60;;;-1.40;99.90;;;;;;5132173;27;20720;-70
2024/03/10 03:06:43;;;;;;;0.93;0.93;;;-1.30;99.90;;;;;;5131906;27;20216;-70
2024/03/10 03:09:08;;;;;;;0.70;0.70;;;-1.30;99.90;;;;;;5116365;28;20577;-70
2024/03/10 03:11:34;;;;;;;0.70;0.70;;;-1.30;99.90;;;;;;5116028;28;20184;-70
2024/03/10 03:14:04;;;;;;;0.68;0.68;;;-1.20;99.90;;;;;;5116053;28;20183;-70
2024/03/10 03:16:29;;;;;;;0.70;0.70;;;-1.20;99.90;;;;;;5115912;28;20191;-70
2024/03/10 03:18:56;;;;;;;0.70;0.70;;;-1.20;99.90;;;;;;5115954;28;20191;-70
2024/03/10 03:21:22;;;;;;;0.70;0.70;;;-1.30;99.90;;;;;;5097446;28;20274;-71
2024/03/10 03:23:48;;;;;;;0.60;0.60;;;-1.30;99.90;;;;;;5116452;28;20198;-70
2024/03/10 03:26:16;;;;;;;0.80;0.80;;;-1.30;99.90;;;;;;5115748;28;20195;-71
2024/03/10 03:28:42;;;;;;;0.70;0.70;;;-1.30;99.90;;;;;;5115678;28;20191;-70
2024/03/10 03:31:08;;;;;;;0.77;0.77;;;-1.30;99.90;;;;;;5097818;28;20559;-70
2024/03/10 03:33:33;;;;;;;0.70;0.70;;;-1.30;99.90;;;;;;5115590;28;20217;-70
2024/03/10 03:36:00;;;;;;;0.70;0.70;;;-1.40;99.90;;;;;;5115804;28;20187;-70
2024/03/10 03:38:26;;;;;;;0.80;0.80;;;-1.30;99.90;;;;;;5115529;28;20210;-71
2024/03/10 03:40:52;;;;;;;0.80;0.80;;;-1.30;99.90;;;;;;5115663;28;20226;-71
2024/03/10 03:43:18;;;;;;;0.77;0.77;;;-1.30;99.90;;;;;;5097269;28;20226;-71
2024/03/10 03:45:44;;;;;;;0.88;0.88;;;-1.30;99.90;;;;;;5097199;28;20196;-70
2024/03/10 03:48:09;;;;;;;0.80;0.80;;;-1.30;99.90;;;;;;5115356;28;20743;-71
2024/03/10 03:50:35;;;;;;;0.70;0.70;;;-1.30;99.90;;;;;;5115296;28;20191;-71
2024/03/10 03:53:01;;;;;;;0.70;0.70;;;-1.40;99.90;;;;;;5115011;27;20194;-71
2024/03/10 03:55:27;;;;;;;0.73;0.73;;;-1.30;99.90;;;;;;5115376;28;20198;-70
2024/03/10 03:57:53;;;;;;;0.70;0.70;;;-1.40;99.90;;;;;;5115306;28;20202;-70
2024/03/10 04:00:19;;;;;;;0.70;0.70;;;-1.30;99.90;;;;;;5112847;28;20187;-70
2024/03/10 04:02:46;;;;;;;0.77;0.77;;;-1.30;99.90;;;;;;5096779;28;20603;-70
2024/03/10 04:05:15;;;;;;;0.75;0.75;;;-1.30;99.90;;;;;;5115129;28;20192;-71
2024/03/10 04:07:41;;;;;;;0.70;0.70;;;-1.20;99.90;;;;;;5114908;28;20671;-70
2024/03/10 04:10:09;;;;;;;0.70;0.70;;;-1.20;99.90;;;;;;5115061;28;20270;-70
2024/03/10 04:12:36;;;;;;;0.80;0.80;;;-1.20;99.90;;;;;;5114539;28;20187;-70
2024/03/10 04:15:02;;;;;;;0.70;0.70;;;-1.20;99.90;;;;;;5114918;28;20240;-71
2024/03/10 04:17:28;;;;;;;1.30;1.20;;;-1.20;99.90;;;;;;5114723;28;20187;-71
2024/03/10 04:19:53;;;;;;;0.80;0.80;;;-1.20;99.90;;;;;;5114805;28;20240;-71
2024/03/10 04:22:20;;;;;;;0.70;0.70;;;-1.20;99.90;;;;;;5114798;28;20550;-70
2024/03/10 04:24:48;;;;;;;0.70;0.70;;;-1.20;99.90;;;;;;5114762;28;20192;-70
2024/03/10 04:27:14;;;;;;;1.10;0.98;;;-1.20;99.90;;;;;;5114615;28;20200;-70
2024/03/10 04:29:41;;;;;;;0.70;0.70;;;-1.30;99.90;;;;;;5114486;28;20227;-70
2024/03/10 04:32:07;;;;;;;0.80;0.80;;;-1.30;99.90;;;;;;5114573;28;20188;-70
2024/03/10 04:34:34;;;;;;;0.70;0.70;;;-1.20;99.90;;;;;;5096067;28;20283;-70
2024/03/10 04:37:00;;;;;;;0.80;0.80;;;-1.30;99.90;;;;;;5114500;28;20187;-70
2024/03/10 04:39:26;;;;;;;0.73;0.73;;;-1.30;99.90;;;;;;5114360;28;20191;-71
2024/03/10 04:41:55;;;;;;;0.70;0.70;;;-1.30;99.90;;;;;;5114461;28;20590;-71
2024/03/10 04:44:21;;;;;;;0.70;0.70;;;-1.30;99.90;;;;;;5114164;28;20677;-70
2024/03/10 04:46:47;;;;;;;0.60;0.60;;;-1.30;99.90;;;;;;5114309;28;20203;-70
2024/03/10 04:49:13;;;;;;;0.80;0.80;;;-1.30;99.90;;;;;;5124082;27;20187;-71
2024/03/10 04:51:39;;;;;;;0.77;0.77;;;-1.30;99.90;;;;;;5095787;28;20192;-70
2024/03/10 04:54:05;;;;;;;0.75;0.75;;;-1.30;99.90;;;;;;5114145;28;20266;-71
2024/03/10 04:56:35;;;;;;;0.70;0.70;;;-1.30;99.90;;;;;;5113946;28;20245;-71
2024/03/10 04:59:01;;;;;;;0.73;0.73;;;-1.30;99.90;;;;;;5114122;28;20187;-71
2024/03/10 05:01:28;;;;;;;0.60;0.60;;;-1.30;99.90;;;;;;5120304;27;20229;-71
2024/03/10 05:03:53;;;;;;;0.75;0.75;;;-1.30;99.90;;;;;;5073393;28;20193;-70
2024/03/10 05:06:19;;;;;;;0.70;0.70;;;-1.30;99.90;;;;;;5073113;28;20606;-76
2024/03/10 05:08:46;;;;;;;0.77;0.77;;;-1.20;99.90;;;;;;5073161;28;20613;-77
2024/03/10 05:11:12;;;;;;;0.70;0.70;;;-1.30;99.90;;;;;;5073139;28;20185;-76
2024/03/10 05:13:38;;;;;;;0.70;0.70;;;-1.30;99.90;;;;;;5054984;28;20200;-77
2024/03/10 05:16:04;;;;;;;0.80;0.80;;;-1.30;99.90;;;;;;5073062;28;20648;-77
2024/03/10 05:18:31;;;;;;;0.70;0.70;;;-1.30;99.90;;;;;;5072707;28;20231;-77
2024/03/10 05:20:57;;;;;;;1.35;1.25;;;-1.30;99.90;;;;;;5072829;28;20266;-77
2024/03/10 05:23:22;;;;;;;0.80;0.80;;;-1.20;99.90;;;;;;5055084;28;20676;-77
2024/03/10 05:25:48;;;;;;;0.80;0.80;;;-1.20;99.90;;;;;;5072399;28;20201;-76
2024/03/10 05:28:13;;;;;;;0.60;0.60;;;-1.20;99.90;;;;;;5072743;28;20228;-77
2024/03/10 05:30:42;;;;;;;0.80;0.80;;;-1.20;99.90;;;;;;5072849;28;20185;-77
2024/03/10 05:33:08;;;;;;;0.75;0.75;;;-1.20;99.90;;;;;;5072822;28;20185;-77
2024/03/10 05:35:33;;;;;;;0.60;0.60;;;-1.20;99.90;;;;;;5072666;28;20671;-77
2024/03/10 05:37:59;;;;;;;0.57;0.57;;;-1.20;99.90;;;;;;5072901;28;20208;-77
2024/03/10 05:40:25;;;;;;;0.60;0.60;;;-1.20;99.90;;;;;;5072540;28;20283;-76
2024/03/10 05:42:51;;;;;;;0.70;0.70;;;-1.20;99.90;;;;;;5072575;28;20188;-77
2024/03/10 05:45:18;;;;;;;0.70;0.70;;;-1.20;99.90;;;;;;5072233;28;20197;-78
2024/03/10 05:47:44;;;;;;;0.70;0.70;;;-1.30;99.90;;;;;;5054564;28;20223;-78
2024/03/10 05:50:10;;;;;;;1.25;1.15;;;-1.20;99.90;;;;;;5072646;28;20192;-77
2024/03/10 05:52:35;;;;;;;0.80;0.80;;;-1.20;99.90;;;;;;5072467;28;20193;-78
2024/03/10 05:55:01;;;;;;;1.42;1.15;;;-1.20;99.90;;;;;;5072613;28;20184;-77
2024/03/10 05:57:27;;;;;;;0.77;0.77;;;-1.20;99.90;;;;;;5072461;28;20197;-78
2024/03/10 05:59:52;;;;;;;0.80;0.80;;;-1.20;99.90;;;;;;5072597;28;20192;-77
2024/03/10 06:02:18;;;;;;;0.60;0.60;;;-1.20;99.90;;;;;;5083583;28;20249;-78
2024/03/10 06:04:45;;;;;;;0.82;0.82;;;-1.20;99.90;;;;;;5092634;28;20290;-79
2024/03/10 06:07:11;;;;;;;0.70;0.70;;;-1.20;99.90;;;;;;5092538;28;20633;-77
2024/03/10 06:09:37;;;;;;;0.60;0.60;;;-1.10;99.90;;;;;;5092356;28;20188;-78
2024/03/10 06:12:03;;;;;;;1.45;1.38;;;-1.10;99.90;;;;;;5092558;28;20326;-78
2024/03/10 06:14:30;;;;;;;1.35;1.25;;;-1.10;99.90;;;;;;5092377;28;20195;-79
2024/03/10 06:16:57;;;;;;;1.02;1.02;;;-1.10;99.90;;;;;;5074625;28;20314;-78
2024/03/10 06:27:35;;;;;;;0.60;0.60;;;-1.10;99.90;;;;;;5092223;28;20705;-77
2024/03/10 06:30:01;;;;;;;0.95;0.95;;;-1.10;99.90;;;;;;5092477;28;20180;-77
2024/03/10 06:32:27;;;;;;;0.60;0.60;;;-1.10;99.90;;;;;;5074119;28;20652;-77
2024/03/10 06:34:53;;;;;;;0.70;0.70;;;-1.10;99.90;;;;;;5092476;28;20192;-77
2024/03/10 06:37:19;;;;;;;0.65;0.65;;;-1.10;99.90;;;;;;5077087;28;20203;-76
2024/03/10 06:39:46;;;;;;;0.80;0.80;;;-1.10;99.90;;;;;;5096378;28;20204;-76
2024/03/10 06:42:12;;;;;;;0.73;0.73;;;-1.10;99.90;;;;;;5077405;28;20207;-75
2024/03/10 06:44:38;;;;;;;0.80;0.80;;;-1.10;99.90;;;;;;5111755;28;20574;-75
2024/03/10 06:47:04;;;;;;;0.63;0.63;;;-1.10;99.90;;;;;;5096160;28;20253;-75
2024/03/10 06:49:30;;;;;;;0.70;0.70;;;-1.00;99.90;;;;;;5096053;28;20192;-76
2024/03/10 06:51:57;;;;;;;0.63;0.63;;;-1.10;99.90;;;;;;5096158;28;20393;-75
2024/03/10 06:54:23;;;;;;;0.70;0.70;;;-1.00;99.90;;;;;;5095817;28;20234;-76
2024/03/10 06:56:49;;;;;;;0.80;0.80;;;-1.00;99.90;;;;;;5096160;28;20286;-76
2024/03/10 06:59:16;;;;;;;0.70;0.70;;;-1.10;99.90;;;;;;5096016;28;20569;-77
2024/03/10 07:01:45;;;;;;;0.70;0.70;;;-1.10;99.90;;;;;;5095580;28;20637;-77
2024/03/10 07:04:11;;;;;;;0.80;0.80;;;-1.10;99.90;;;;;;5111688;28;20192;-75
2024/03/10 07:06:39;;;;;;;0.73;0.73;;;-1.10;99.90;;;;;;5095516;28;20212;-75
2024/03/10 07:09:11;;;;;;;0.70;0.70;;;-1.10;99.90;;;;;;5095863;28;20241;-75
2024/03/10 07:11:39;;;;;;;0.70;0.70;;;-1.00;99.90;;;;;;5095491;28;20200;-75
2024/03/10 07:14:04;;;;;;;0.70;0.70;;;-1.00;99.90;;;;;;5095780;28;20322;-75
2024/03/10 07:16:31;;;;;;;0.73;0.73;;;-1.00;99.90;;;;;;5077363;28;20286;-74
2024/03/10 07:18:57;;;;;;;0.70;0.70;;;-1.00;99.90;;;;;;5095681;28;20196;-75
2024/03/10 07:21:23;;;;;;;0.70;0.70;;;-1.00;99.90;;;;;;5095338;28;20198;-75
2024/03/10 07:23:49;;;;;;;0.60;0.60;;;-0.90;99.90;;;;;;5096019;28;20192;-76
2024/03/10 07:26:15;;;;;;;1.02;0.98;;;-0.90;99.90;;;;;;5095420;28;20196;-71
2024/03/10 07:28:40;;;;;;;0.70;0.70;;;-1.00;99.90;;;;;;5095259;28;20275;-72
2024/03/10 07:31:06;;;;;;;0.68;0.68;;;-0.90;99.90;;;;;;5095395;28;20679;-72
2024/03/10 07:33:35;;;;;;;0.70;0.70;;;-0.90;99.90;;;;;;5095147;28;20242;-72
2024/03/10 07:36:00;;;;;;;0.70;0.70;;;-1.00;99.90;;;;;;5095290;28;20218;-72
2024/03/10 07:38:27;;;;;;;0.80;0.80;;;-0.90;99.90;;;;;;5089308;28;20210;-72
2024/03/10 07:40:54;;;;;;;0.70;0.70;;;-0.90;99.90;;;;;;5095256;28;20192;-72
2024/03/10 07:43:20;;;;;;;0.60;0.60;;;-0.90;99.90;;;;;;5094985;28;20241;-72
2024/03/10 07:45:46;;;;;;;0.70;0.70;;;-0.90;99.90;;;;;;5076896;28;20196;-72
2024/03/10 07:48:16;;;;;;;0.65;0.65;;;-0.80;99.90;;;;;;5094377;28;20583;-74
2024/03/10 07:50:43;;;;;;;0.70;0.70;;;-0.80;99.90;;;;;;5094794;28;20272;-72
2024/03/10 07:53:09;;;;;;;0.70;0.70;;;-0.80;99.90;;;;;;5094908;28;20636;-72
2024/03/10 07:55:36;;;;;;;0.68;0.68;;;-0.90;99.90;;;;;;5094701;28;20647;-72
2024/03/10 07:58:05;;;;;;;0.60;0.60;;;-0.90;99.90;;;;;;5094801;28;20550;-72
2024/03/10 08:00:31;;;;;;;0.70;0.70;;;-0.90;99.90;;;;;;5094738;28;20244;-73
2024/03/10 08:02:58;;;;;;;0.70;0.70;;;-0.80;99.90;;;;;;5094752;28;20305;-72
2024/03/10 08:05:25;;;;;;;0.70;0.70;;;-0.80;99.90;;;;;;5094651;28;20192;-72
2024/03/10 08:07:52;;;;;;;0.80;0.80;;;-0.80;99.90;;;;;;5076520;28;20252;-73
2024/03/10 08:10:18;;;;;;;0.65;0.65;;;-0.80;99.90;;;;;;5094585;28;20184;-72
2024/03/10 08:12:45;;;;;;;0.70;0.70;;;-0.80;99.90;;;;;;5076439;28;20255;-72
2024/03/10 08:15:13;;;;;;;0.70;0.70;;;-0.80;99.90;;;;;;5094314;28;20233;-71
2024/03/10 08:17:39;;;;;;;0.80;0.80;;;-0.80;99.90;;;;;;5094380;28;20192;-72
2024/03/10 08:20:08;;;;;;;0.68;0.68;;;-0.80;99.90;;;;;;5094342;28;20195;-71
2024/03/10 08:22:38;;;;;;;0.70;0.70;;;-0.80;99.90;;;;;;5094356;28;20664;-71
2024/03/10 08:25:05;;;;;;;1.30;1.20;;;-0.70;99.90;;;;;;5094254;28;20200;-73
2024/03/10 08:27:31;;;;;;;0.70;0.70;;;-0.70;99.90;;;;;;5093938;28;20200;-72
2024/03/10 08:29:57;;;;;;;0.80;0.80;;;-0.70;99.90;;;;;;5094253;28;20199;-72
2024/03/10 08:32:23;;;;;;;0.60;0.60;;;-0.80;99.90;;;;;;5093574;28;20201;-72
2024/03/10 08:34:53;;;;;;;1.15;0.88;;;-0.70;99.90;;;;;;5088701;28;20590;-74
2024/03/10 08:37:19;;;;;;;0.60;0.60;;;-0.70;99.90;;;;;;5093926;28;20192;-73
2024/03/10 08:39:47;;;;;;;0.80;0.80;;;-0.70;99.90;;;;;;5075930;28;20227;-74
2024/03/10 08:42:15;;;;;;;0.70;0.70;;;-0.70;99.90;;;;;;5093918;28;20215;-74
2024/03/10 08:44:42;;;;;;;0.77;0.77;;;-0.70;99.90;;;;;;5093749;28;20218;-74
2024/03/10 08:47:07;;;;;;;0.70;0.70;;;-0.70;99.90;;;;;;5093788;28;20212;-74
2024/03/10 08:49:33;;;;;;;0.65;0.65;;;-0.70;99.90;;;;;;5075479;28;20192;-74
2024/03/10 08:52:01;;;;;;;1.63;1.27;;;-0.70;99.90;;;;;;5093835;28;20215;-74
2024/03/10 08:54:29;;;;;;;0.80;0.80;;;-0.60;99.90;;;;;;5093535;28;20229;-74
2024/03/10 08:56:56;;;;;;;0.80;0.80;;;-0.60;99.90;;;;;;5093688;28;20237;-74
2024/03/10 08:59:21;;;;;;;0.80;0.80;;;-0.60;99.90;;;;;;5092699;28;20203;-73
2024/03/10 09:01:47;;;;;;;0.70;0.70;;;-0.60;99.90;;;;;;5093255;28;20224;-73
2024/03/10 09:04:14;;;;;;;0.70;0.70;;;-0.50;99.90;;;;;;5093467;28;20267;-72
2024/03/10 09:06:40;;;;;;;0.65;0.65;;;-0.50;99.90;;;;;;5074963;28;20270;-73
2024/03/10 09:09:06;;;;;;;0.70;0.70;;;-0.60;99.90;;;;;;5093583;28;20558;-73
2024/03/10 09:11:32;;;;;;;0.65;0.65;;;-0.50;99.90;;;;;;5093288;28;20196;-74
2024/03/10 09:13:58;;;;;;;0.60;0.60;;;-0.50;99.90;;;;;;5093421;28;20230;-73
2024/03/10 09:16:27;;;;;;;0.80;0.80;;;-0.50;99.90;;;;;;5093110;28;20184;-73
2024/03/10 09:18:53;;;;;;;0.68;0.68;;;-0.50;99.90;;;;;;5075114;28;20718;-72
2024/03/10 09:21:19;;;;;;;0.60;0.60;;;-0.50;99.90;;;;;;5074836;28;20192;-73
2024/03/10 09:23:44;;;;;;;0.70;0.70;;;-0.40;99.90;;;;;;5093138;28;20203;-73
2024/03/10 09:26:11;;;;;;;0.70;0.70;;;-0.40;99.90;;;;;;5093169;28;20224;-73
2024/03/10 09:28:45;;;;;;;0.60;0.60;;;-0.30;99.90;;;;;;5093341;28;20261;-74
2024/03/10 09:31:14;;;;;;;0.98;0.98;;;-0.40;99.90;;;;;;5069571;28;20686;-73
2024/03/10 09:33:44;;;;;;;0.73;0.73;;;-0.40;99.90;;;;;;5092892;28;20194;-73
2024/03/10 09:36:10;;;;;;;0.60;0.60;;;-0.40;99.90;;;;;;5093091;28;20215;-73
2024/03/10 09:38:36;;;;;;;0.65;0.65;;;-0.40;99.90;;;;;;5092813;28;20652;-73
2024/03/10 09:41:05;;;;;;;0.80;0.80;;;-0.40;99.90;;;;;;5092934;28;20199;-72
2024/03/10 09:43:33;;;;;;;0.80;0.80;;;-0.30;99.90;;;;;;5092689;28;20207;-73
2024/03/10 09:45:59;;;;;;;1.10;1.10;;;-0.30;99.90;;;;;;5093111;28;20224;-73
2024/03/10 09:48:25;;;;;;;2.30;2.08;;;-0.20;99.90;;;;;;5092771;28;20330;-73
2024/03/10 09:50:52;;;;;;;0.70;0.70;;;-0.20;99.90;;;;;;5092842;28;20184;-72
2024/03/10 09:53:18;;;;;;;0.82;0.82;;;-0.20;99.90;;;;;;5092700;28;20263;-73
2024/03/10 09:55:45;;;;;;;0.70;0.70;;;-0.20;99.90;;;;;;5092696;28;20672;-73
2024/03/10 09:58:13;;;;;;;0.70;0.70;;;-0.20;99.90;;;;;;5092689;28;20207;-72
2024/03/10 10:00:40;;;;;;;0.60;0.60;;;-0.20;99.90;;;;;;5092493;28;20196;-72
2024/03/10 10:03:12;;;;;;;0.70;0.70;;;-0.20;99.90;;;;;;5074384;28;20594;-72
2024/03/10 10:05:44;;;;;;;0.75;0.75;;;-0.20;99.90;;;;;;5092456;28;20199;-72
2024/03/10 10:08:12;;;;;;;0.80;0.80;;;-0.20;99.90;;;;;;5092523;28;20750;-71
2024/03/10 10:10:46;;;;;;;0.80;0.80;;;-0.20;99.90;;;;;;5093306;28;20207;-71
2024/03/10 10:13:27;;;;;;;0.50;0.50;;;-0.10;99.90;;;;;;5080974;28;20298;-72
2024/03/10 10:15:53;;;;;;;0.77;0.77;;;-0.20;99.90;;;;;;5099359;28;20670;-72
2024/03/10 10:18:19;;;;;;;0.90;0.90;;;-0.20;99.90;;;;;;5099158;28;20245;-72
2024/03/10 10:20:50;;;;;;;0.60;0.60;;;-0.10;99.90;;;;;;5081022;28;20286;-72
2024/03/10 10:23:23;;;;;;;1.10;1.10;;;-0.10;99.90;;;;;;5099569;28;20206;-73
2024/03/10 10:26:12;;;;;;;0.73;0.73;;;-0.10;99.90;;;;;;5098868;28;20200;-74
2024/03/10 10:28:41;;;;;;;0.80;0.80;;;-0.10;99.90;;;;;;5078596;28;20211;-74
2024/03/10 10:31:18;;;;;;;0.80;0.80;;;0.00;99.90;;;;;;5060917;28;20200;-72
2024/03/10 10:33:47;;;;;;;0.70;0.70;;;0.10;99.90;;;;;;5078788;28;20266;-73
2024/03/10 10:36:14;;;;;;;0.85;0.85;;;0.10;99.90;;;;;;5078775;28;20198;-73
2024/03/10 10:38:45;;;;;;;0.70;0.70;;;0.20;99.90;;;;;;5078671;28;20250;-74
2024/03/10 10:41:11;;;;;;;0.60;0.60;;;0.20;99.90;;;;;;5078725;28;20223;-71
2024/03/10 10:43:38;;;;;;;1.35;1.25;;;0.10;99.90;;;;;;5078528;28;20657;-74
2024/03/10 10:46:12;;;;;;;0.80;0.80;;;0.10;99.90;;;;;;5078800;28;20189;-74
2024/03/10 10:48:41;;;;;;;0.60;0.60;;;0.20;99.90;;;;;;5060672;28;20216;-74
2024/03/10 10:51:08;;;;;;;0.75;0.75;;;0.10;99.90;;;;;;5078700;28;20726;-74
2024/03/10 10:53:35;;;;;;;0.70;0.70;;;0.20;99.90;;;;;;5078459;28;20588;-74
2024/03/10 10:56:02;;;;;;;0.70;0.70;;;0.20;99.90;;;;;;5078834;28;20562;-73
2024/03/10 10:58:31;;;;;;;0.70;0.70;;;0.20;99.90;;;;;;5078516;28;20659;-73
2024/03/10 11:01:00;;;;;;;0.60;0.60;;;0.20;99.90;;;;;;5078488;28;20197;-74
2024/03/10 11:03:26;;;;;;;0.80;0.80;;;0.20;99.90;;;;;;5078365;28;20227;-75
2024/03/10 11:06:01;;;;;;;0.60;0.60;;;0.30;99.90;;;;;;5078587;28;20355;-75
2024/03/10 11:08:31;;;;;;;0.77;0.77;;;0.30;99.90;;;;;;5078164;28;20216;-74
2024/03/10 11:10:56;;;;;;;0.70;0.70;;;0.40;99.90;;;;;;5078546;28;20196;-74
2024/03/10 11:13:23;;;;;;;0.70;0.70;;;0.40;99.90;;;;;;5078393;28;20188;-74
2024/03/10 11:16:20;;;;;;;0.60;0.60;;;0.50;99.90;;;;;;5078370;28;20658;-73
2024/03/10 11:18:46;;;;;;;0.70;0.70;;;0.40;99.90;;;;;;5078476;28;20185;-73
2024/03/10 11:21:17;;;;;;;0.60;0.60;;;0.40;99.90;;;;;;5060365;28;20192;-73
2024/03/10 11:23:48;;;;;;;0.70;0.70;;;0.30;99.90;;;;;;5087983;28;20632;-74
2024/03/10 11:26:20;;;;;;;0.60;0.60;;;0.30;99.90;;;;;;5095332;28;20200;-74
2024/03/10 11:28:49;;;;;;;0.70;0.70;;;0.30;99.90;;;;;;5095406;28;20664;-74
2024/03/10 11:31:36;;;;;;;0.70;0.70;;;0.30;99.90;;;;;;5095390;28;20191;-74
2024/03/10 11:34:03;;;;;;;0.70;0.70;;;0.40;99.90;;;;;;5095207;28;20719;-73
2024/03/10 11:36:40;;;;;;;0.65;0.65;;;0.40;99.90;;;;;;5095117;28;20541;-73
2024/03/10 11:39:07;;;;;;;0.65;0.65;;;0.40;99.90;;;;;;5095257;28;20199;-73
2024/03/10 11:41:33;;;;;;;0.70;0.70;;;0.40;99.90;;;;;;5095070;28;20271;-74
2024/03/10 11:43:59;;;;;;;0.68;0.68;;;0.40;99.90;;;;;;5095093;28;20659;-74
2024/03/10 11:46:31;;;;;;;0.80;0.80;;;0.40;99.90;;;;;;5094826;28;20224;-74
2024/03/10 11:48:59;;;;;;;0.70;0.70;;;0.50;99.90;;;;;;5094936;28;20200;-73
2024/03/10 11:51:38;;;;;;;0.80;0.80;;;0.60;99.90;;;;;;5094791;28;20656;-73
2024/03/10 11:54:07;;;;;;;0.70;0.70;;;0.50;99.90;;;;;;5094868;28;20652;-74
2024/03/10 11:56:33;;;;;;;0.75;0.75;;;0.50;99.90;;;;;;5094735;28;20215;-74
2024/03/10 12:02:16;;;;;;;0.60;0.60;;;0.60;99.90;;;;;;5003655;28;21073;-72
2024/03/10 12:05:11;;;;;;;0.70;0.70;;;0.70;99.90;;;;;;4994234;28;20203;-74
2024/03/10 12:08:00;;;;;;;0.60;0.60;;;0.70;99.90;;;;;;4983629;28;20227;-72
2024/03/10 12:10:36;;;;;;;0.70;0.70;;;0.70;99.90;;;;;;4976746;28;20676;-71
2024/03/10 12:13:19;;;;;;;0.70;0.70;;;0.60;99.90;;;;;;4993292;28;20195;-71
2024/03/10 12:15:59;;;;;;;0.75;0.75;;;0.50;99.90;;;;;;4978112;28;20273;-72
2024/03/10 12:18:25;;;;;;;0.80;0.80;;;0.50;99.90;;;;;;4991099;28;20766;-73
2024/03/10 12:20:52;;;;;;;0.80;0.80;;;0.60;99.90;;;;;;4993706;28;20687;-73
2024/03/10 12:23:36;;;;;;;0.80;0.80;;;0.60;99.90;;;;;;4994044;28;20200;-74
2024/03/10 12:26:12;;;;;;;0.80;0.80;;;0.50;99.90;;;;;;4976958;28;20219;-70
2024/03/10 12:28:46;;;;;;;0.60;0.60;;;0.60;99.90;;;;;;4992348;28;20272;-70
2024/03/10 12:31:14;;;;;;;0.70;0.70;;;0.60;99.90;;;;;;4991765;28;20222;-71
2024/03/10 12:33:46;;;;;;;0.63;0.63;;;0.60;99.90;;;;;;4991393;28;20672;-70
2024/03/10 12:36:15;;;;;;;0.68;0.68;;;0.70;99.90;;;;;;4991638;28;20676;-71
2024/03/10 12:38:42;;;;;;;1.30;1.20;;;0.70;99.90;;;;;;5019600;28;20282;-70
2024/03/10 12:41:13;;;;;;;1.17;1.10;;;0.80;99.90;;;;;;5073698;28;20626;-70
2024/03/10 12:43:41;;;;;;;0.55;0.55;;;0.80;99.90;;;;;;5073495;28;20271;-71
2024/03/10 12:46:14;;;;;;;0.70;0.70;;;0.80;99.90;;;;;;5055662;28;20250;-70
2024/03/10 12:48:41;;;;;;;0.70;0.70;;;0.80;99.90;;;;;;5055006;28;20278;-71
2024/03/10 12:51:09;;;;;;;0.60;0.60;;;0.70;99.90;;;;;;5073247;28;20567;-71
2024/03/10 12:53:36;;;;;;;0.90;0.90;;;0.70;99.90;;;;;;5054777;28;20196;-72
2024/03/10 12:56:03;;;;;;;0.70;0.70;;;0.60;99.90;;;;;;5072928;28;20181;-72
2024/03/10 12:58:29;;;;;;;0.70;0.70;;;0.60;99.90;;;;;;5054741;28;20203;-72
2024/03/10 13:00:55;;;;;;;0.85;0.85;;;0.70;99.90;;;;;;5073054;28;20246;-71
2024/03/10 13:03:20;;;;;;;0.70;0.70;;;0.70;99.90;;;;;;5072356;28;20311;-71
2024/03/10 13:05:46;;;;;;;0.70;0.70;;;0.70;99.90;;;;;;5093406;28;20611;-71
2024/03/10 13:08:12;;;;;;;0.80;0.80;;;0.70;99.90;;;;;;5093265;28;20216;-72
2024/03/10 13:10:39;;;;;;;0.85;0.85;;;0.80;99.90;;;;;;5093105;28;20192;-72
2024/03/10 13:13:07;;;;;;;0.70;0.70;;;0.80;99.90;;;;;;5092906;28;20191;-72
2024/03/10 13:15:36;;;;;;;0.70;0.70;;;0.80;99.90;;;;;;5092700;28;20181;-74
2024/03/10 13:18:10;;;;;;;0.60;0.60;;;0.70;99.90;;;;;;5075129;28;20196;-75